Tekakwitha, South Dakota
Current Conditions -  °F | °C
As of 10:36 PM on Wednesday 28 Jan 2015 (Local Time) from KETH Reporting Station
Light Snow Light Snow  
Wind Chill: 18°   Ceiling: 900
Heat Index: 30°   Visibility: 2.5mi
Dew Point: 28°   Wind: 20mph
Humidity: 93%   Direction: 310°NW
Pressure: 30.01"   Gusts: 25mph
Location:  45.7041°N, 96.9842°W
Report Text: KETH 290436Z AUTO 31017G22KT 2 1/2SM -SN OVC009 M01/M02 A3001 RMK AO2
Loading
Personal Weather Stations






























Interactive Weather Map New forecast layout! Learn more

10-Day Weather Forecast

Advertisements
Track Severe Weather on mobile